MAPA DE AEROPUERTO

INFORMACIÓN METAR y TAF

METAR FOR LEDA
ADDS - METARS form results

(1622 UTC 07 May 2021)
Data provider http://aviationweather.gov/metar/data/
 
METAR text: LEDA 071600Z 25015KT 9999 FEW040 27/09 Q1015
Conditions at: LEDA (LLEIDA-ALGUAIRE , ES) observed 1600 UTC 07 May 2021
Temperature: 27.0°C (81°F)
Dewpoint: 9.0°C (48°F) [RH = 32%]
Pressure (altimeter): 29.97 inches Hg (1015.0 mb)
Winds: from the WSW (250 degrees) at 17 MPH (15 knots; 7.7 m/s)
Visibility: 6 or more miles (10+ km)
Ceiling: at least 12,000 feet AGL
Clouds: few clouds at 4000 feet AGL
Weather: no significant weather observed at this time

METAR text: LEDA 071530Z 24014KT 210V280 9999 FEW040 27/10 Q1016
Conditions at: LEDA (LLEIDA-ALGUAIRE , ES) observed 1530 UTC 07 May 2021
Temperature: 27.0°C (81°F)
Dewpoint: 10.0°C (50°F) [RH = 34%]
Pressure (altimeter): 30.00 inches Hg (1016.0 mb)
Winds: from the WSW (240 degrees) at 16 MPH (14 knots; 7.2 m/s)
Visibility: 6 or more miles (10+ km)
Ceiling: at least 12,000 feet AGL
Clouds: few clouds at 4000 feet AGL
Weather: no significant weather observed at this time